createdAt,value
2023-04-08T00:00:43.084Z,0.00
2023-04-08T00:01:43.116Z,0.00
2023-04-08T00:02:43.242Z,0.00
2023-04-08T00:03:43.161Z,0.00
2023-04-08T00:04:43.073Z,0.00
2023-04-08T00:05:43.040Z,0.00
2023-04-08T00:06:43.080Z,0.00
2023-04-08T00:07:43.019Z,0.00
2023-04-08T00:08:42.999Z,0.00
2023-04-08T00:09:43.000Z,0.00
2023-04-08T00:10:43.018Z,0.00
2023-04-08T00:11:42.972Z,0.00
2023-04-08T00:12:42.952Z,0.00
2023-04-08T00:13:42.940Z,0.00
2023-04-08T00:14:42.980Z,0.00
2023-04-08T00:15:42.925Z,0.00
2023-04-08T00:16:43.033Z,0.00
2023-04-08T00:17:43.000Z,0.00
2023-04-08T00:18:42.926Z,0.00
2023-04-08T00:19:42.930Z,0.00
2023-04-08T00:20:42.869Z,0.00
2023-04-08T00:21:42.870Z,0.00
2023-04-08T00:22:42.873Z,0.00
2023-04-08T00:23:42.834Z,0.00
2023-04-08T00:24:42.822Z,0.00
2023-04-08T00:25:42.813Z,0.00
2023-04-08T00:26:42.813Z,0.00
2023-04-08T00:27:42.786Z,0.00
2023-04-08T00:28:42.780Z,0.00
2023-04-08T00:29:42.800Z,0.00
2023-04-08T00:30:42.780Z,0.00
2023-04-08T00:31:42.744Z,0.00
2023-04-08T00:32:42.746Z,0.00
2023-04-08T00:33:42.729Z,0.00
2023-04-08T00:34:42.754Z,0.00
2023-04-08T00:35:42.770Z,0.00
2023-04-08T00:36:42.695Z,0.00
2023-04-08T00:37:42.711Z,0.00
2023-04-08T00:38:42.702Z,0.00
2023-04-08T00:39:42.668Z,0.00
2023-04-08T00:40:42.665Z,0.00
2023-04-08T00:41:42.648Z,0.00
2023-04-08T00:42:42.623Z,0.00
2023-04-08T00:43:42.681Z,0.00
2023-04-08T00:44:42.602Z,0.00
2023-04-08T00:45:42.615Z,0.00
2023-04-08T00:46:42.613Z,0.00
2023-04-08T00:47:42.662Z,0.00
2023-04-08T00:48:42.554Z,0.00
2023-04-08T00:49:42.572Z,0.00
2023-04-08T00:50:42.559Z,0.00
2023-04-08T00:51:42.532Z,0.00
2023-04-08T00:52:42.524Z,0.00
2023-04-08T00:53:42.532Z,0.00
2023-04-08T00:54:42.491Z,0.00
2023-04-08T00:55:42.503Z,0.00
2023-04-08T00:56:42.486Z,0.00
2023-04-08T00:57:42.476Z,0.00
2023-04-08T00:58:42.464Z,0.00
2023-04-08T00:59:42.474Z,0.00
2023-04-08T01:00:42.464Z,0.00
2023-04-08T01:01:42.475Z,0.00
2023-04-08T01:02:42.625Z,0.00
2023-04-08T01:03:42.504Z,0.00
2023-04-08T01:04:42.399Z,0.00
2023-04-08T01:05:42.395Z,0.00
2023-04-08T01:06:42.382Z,0.00
2023-04-08T01:07:42.355Z,0.00
2023-04-08T01:08:42.357Z,0.00
2023-04-08T01:09:42.331Z,0.00
2023-04-08T01:10:42.338Z,0.00
2023-04-08T01:11:42.394Z,0.00
2023-04-08T01:12:42.297Z,0.00
2023-04-08T01:13:42.289Z,0.00
2023-04-08T01:14:42.310Z,0.00
2023-04-08T01:15:42.304Z,0.00
2023-04-08T01:16:42.259Z,0.00
2023-04-08T01:17:42.259Z,0.00
2023-04-08T01:18:42.228Z,0.00
2023-04-08T01:19:42.253Z,0.00
2023-04-08T01:20:42.225Z,0.00
2023-04-08T01:21:42.218Z,0.00
2023-04-08T01:22:42.196Z,0.00
2023-04-08T01:23:42.202Z,0.00
2023-04-08T01:24:42.196Z,0.00
2023-04-08T01:25:42.196Z,0.00
2023-04-08T01:26:42.154Z,0.00
2023-04-08T01:27:42.172Z,0.00
2023-04-08T01:28:42.156Z,0.00
2023-04-08T01:29:42.130Z,0.00
2023-04-08T01:30:42.101Z,0.00
2023-04-08T01:31:42.150Z,0.00
2023-04-08T01:32:42.137Z,0.00
2023-04-08T01:33:42.062Z,0.00
2023-04-08T01:34:42.070Z,0.00
2023-04-08T01:35:42.083Z,0.00
2023-04-08T01:36:42.068Z,0.00
2023-04-08T01:37:42.070Z,0.00
2023-04-08T01:38:42.091Z,0.00
2023-04-08T01:39:42.015Z,0.00
2023-04-08T01:40:42.088Z,0.00
2023-04-08T01:41:41.977Z,0.00
2023-04-08T01:42:41.973Z,0.00
2023-04-08T01:43:41.970Z,0.00
2023-04-08T01:44:41.985Z,0.00
2023-04-08T01:45:41.944Z,0.00
2023-04-08T01:46:41.957Z,0.00
2023-04-08T01:47:41.951Z,0.00
2023-04-08T01:48:41.930Z,0.00
2023-04-08T01:49:41.911Z,0.00
2023-04-08T01:50:41.949Z,0.00
2023-04-08T01:51:41.874Z,0.00
2023-04-08T01:52:41.878Z,0.00
2023-04-08T01:53:41.856Z,0.00
2023-04-08T01:54:41.914Z,0.00
2023-04-08T01:55:41.836Z,0.00
2023-04-08T01:56:41.839Z,0.00
2023-04-08T01:57:41.808Z,0.00
2023-04-08T01:58:41.818Z,0.00
2023-04-08T01:59:41.838Z,0.00
2023-04-08T02:00:41.776Z,0.00
2023-04-08T02:01:41.907Z,0.00
2023-04-08T02:02:42.096Z,0.00
2023-04-08T02:03:41.797Z,0.00
2023-04-08T02:04:41.957Z,0.00
2023-04-08T02:05:41.728Z,0.00
2023-04-08T02:06:41.737Z,0.00
2023-04-08T02:07:41.724Z,0.00
2023-04-08T02:08:41.705Z,0.00
2023-04-08T02:09:41.692Z,0.00
2023-04-08T02:10:41.673Z,0.00
2023-04-08T02:11:41.718Z,0.00
2023-04-08T02:12:41.687Z,0.00
2023-04-08T02:13:41.647Z,0.00
2023-04-08T02:14:41.723Z,0.00
2023-04-08T02:15:41.629Z,0.00
2023-04-08T02:16:41.651Z,0.00
2023-04-08T02:17:41.683Z,0.00
2023-04-08T02:18:41.622Z,0.00
2023-04-08T02:19:41.581Z,0.00
2023-04-08T02:20:41.559Z,0.00
2023-04-08T02:21:41.563Z,0.00
2023-04-08T02:22:41.597Z,0.00
2023-04-08T02:23:41.535Z,0.00
2023-04-08T02:24:41.548Z,0.00
2023-04-08T02:25:41.505Z,0.00
2023-04-08T02:26:41.591Z,0.00
2023-04-08T02:27:41.494Z,0.00
2023-04-08T02:28:41.485Z,0.00
2023-04-08T02:29:41.496Z,0.00
2023-04-08T02:30:41.455Z,0.00
2023-04-08T02:31:41.500Z,0.00
2023-04-08T02:32:41.492Z,0.00
2023-04-08T02:33:41.469Z,0.00
2023-04-08T02:34:41.452Z,0.00
2023-04-08T02:35:41.482Z,0.00
2023-04-08T02:36:41.489Z,0.00
2023-04-08T02:37:41.381Z,0.00
2023-04-08T02:38:41.379Z,0.00
2023-04-08T02:39:41.360Z,0.00
2023-04-08T02:40:41.349Z,0.00
2023-04-08T02:41:41.336Z,0.00
2023-04-08T02:42:41.327Z,0.00
2023-04-08T02:43:41.306Z,0.00
2023-04-08T02:44:41.337Z,0.00
2023-04-08T02:45:41.313Z,0.00
2023-04-08T02:46:41.291Z,0.00
2023-04-08T02:47:41.318Z,0.00
2023-04-08T02:48:41.268Z,0.00
2023-04-08T02:49:41.302Z,0.00
2023-04-08T02:50:41.263Z,0.00
2023-04-08T02:51:41.222Z,0.00
2023-04-08T02:52:41.217Z,0.00
2023-04-08T02:53:41.599Z,0.00
2023-04-08T02:54:41.267Z,0.00
2023-04-08T02:55:41.179Z,0.00
2023-04-08T02:56:41.176Z,0.00
2023-04-08T02:57:41.178Z,0.00
2023-04-08T02:58:41.173Z,0.00
2023-04-08T02:59:41.168Z,0.00
2023-04-08T03:00:41.208Z,0.00
2023-04-08T03:01:41.168Z,0.00
2023-04-08T03:02:41.254Z,0.00
2023-04-08T03:03:41.231Z,0.00
2023-04-08T03:04:41.108Z,0.00
2023-04-08T03:05:41.133Z,0.00
2023-04-08T03:06:41.148Z,0.00
2023-04-08T03:07:41.065Z,0.00
2023-04-08T03:08:41.051Z,0.00
2023-04-08T03:09:41.044Z,0.00
2023-04-08T03:10:41.021Z,0.00
2023-04-08T03:11:40.999Z,0.00
2023-04-08T03:12:40.998Z,0.00
2023-04-08T03:13:40.982Z,0.00
2023-04-08T03:14:41.063Z,0.00
2023-04-08T03:15:41.027Z,0.00
2023-04-08T03:16:41.043Z,0.00
2023-04-08T03:17:41.027Z,0.00
2023-04-08T03:18:40.945Z,0.00
2023-04-08T03:19:40.920Z,0.00
2023-04-08T03:20:40.937Z,0.00
2023-04-08T03:21:40.951Z,0.00
2023-04-08T03:22:40.890Z,0.00
2023-04-08T03:23:40.948Z,0.00
2023-04-08T03:24:40.897Z,0.00
2023-04-08T03:25:40.946Z,0.00
2023-04-08T03:26:41.082Z,0.00
2023-04-08T03:27:40.917Z,0.00
2023-04-08T03:28:40.845Z,0.00
2023-04-08T03:29:41.132Z,0.00
2023-04-08T03:30:40.987Z,0.00
2023-04-08T03:31:40.915Z,0.00
2023-04-08T03:32:40.877Z,0.00
2023-04-08T03:33:40.962Z,0.00
2023-04-08T03:34:40.863Z,0.00
2023-04-08T03:35:40.853Z,0.00
2023-04-08T03:36:40.910Z,0.00
2023-04-08T03:37:40.728Z,0.00
2023-04-08T03:38:40.962Z,0.00
2023-04-08T03:39:41.288Z,0.00
2023-04-08T03:40:40.852Z,0.00
2023-04-08T03:41:40.683Z,0.00
2023-04-08T03:42:40.685Z,0.00
2023-04-08T03:43:40.664Z,0.00
2023-04-08T03:44:41.702Z,0.00
2023-04-08T03:45:40.921Z,0.00
2023-04-08T03:46:40.915Z,0.00
2023-04-08T03:47:41.389Z,0.00
2023-04-08T03:48:40.627Z,0.00
2023-04-08T03:49:40.629Z,0.00
2023-04-08T03:50:40.614Z,0.00
2023-04-08T03:51:40.577Z,0.00
2023-04-08T03:52:40.602Z,0.00
2023-04-08T03:53:40.594Z,0.00
2023-04-08T03:54:40.559Z,0.00
2023-04-08T03:55:40.591Z,0.00
2023-04-08T03:56:40.520Z,0.00
2023-04-08T03:57:40.508Z,0.00
2023-04-08T03:58:40.501Z,0.00
2023-04-08T03:59:40.577Z,0.00
2023-04-08T04:00:40.598Z,0.00
2023-04-08T04:01:41.930Z,0.00
2023-04-08T04:02:40.566Z,0.00
2023-04-08T04:03:40.549Z,0.00
2023-04-08T04:04:40.503Z,0.00
2023-04-08T04:05:40.440Z,0.00
2023-04-08T04:06:40.422Z,0.00
2023-04-08T04:07:40.397Z,0.00
2023-04-08T04:08:40.387Z,0.00
2023-04-08T04:09:40.384Z,0.00
2023-04-08T04:10:40.425Z,0.00
2023-04-08T04:11:40.349Z,0.00
2023-04-08T04:12:40.344Z,0.00
2023-04-08T04:13:40.370Z,0.00
2023-04-08T04:14:40.334Z,0.00
2023-04-08T04:15:40.392Z,0.00
2023-04-08T04:16:40.308Z,0.00
2023-04-08T04:17:40.319Z,0.00
2023-04-08T04:18:40.353Z,0.00
2023-04-08T04:19:40.278Z,0.00
2023-04-08T04:20:40.273Z,0.00
2023-04-08T04:21:40.325Z,0.00
2023-04-08T04:22:40.249Z,0.00
2023-04-08T04:23:40.353Z,4.00
2023-04-08T04:24:40.232Z,4.00
2023-04-08T04:25:40.258Z,0.00
2023-04-08T04:26:40.192Z,4.00
2023-04-08T04:27:40.182Z,4.00
2023-04-08T04:28:40.222Z,8.00
2023-04-08T04:29:40.155Z,8.00
2023-04-08T04:30:40.161Z,8.00
2023-04-08T04:31:40.257Z,12.00
2023-04-08T04:32:40.197Z,8.00
2023-04-08T04:33:40.110Z,12.00
2023-04-08T04:34:40.132Z,16.00
2023-04-08T04:35:40.113Z,20.00
2023-04-08T04:36:40.100Z,20.00
2023-04-08T04:37:40.086Z,20.00
2023-04-08T04:38:40.087Z,24.00
2023-04-08T04:39:40.045Z,28.00
2023-04-08T04:40:40.056Z,36.00
2023-04-08T04:41:40.030Z,44.00
2023-04-08T04:42:40.031Z,48.00
2023-04-08T04:43:40.088Z,56.00
2023-04-08T04:44:40.012Z,68.00
2023-04-08T04:45:40.005Z,72.00
2023-04-08T04:46:40.023Z,76.00
2023-04-08T04:47:40.037Z,84.00
2023-04-08T04:48:39.950Z,92.00
2023-04-08T04:49:39.956Z,96.00
2023-04-08T04:50:39.938Z,104.00
2023-04-08T04:51:39.926Z,120.00
2023-04-08T04:52:39.918Z,132.00
2023-04-08T04:53:39.936Z,136.00
2023-04-08T04:54:39.894Z,144.00
2023-04-08T04:55:39.884Z,148.00
2023-04-08T04:56:39.960Z,148.00
2023-04-08T04:57:39.857Z,152.00
2023-04-08T04:58:39.851Z,160.00
2023-04-08T04:59:39.891Z,168.00
2023-04-08T05:00:39.819Z,184.00
2023-04-08T05:01:39.908Z,200.00
2023-04-08T05:02:39.983Z,224.00
2023-04-08T05:03:39.857Z,264.00
2023-04-08T05:04:39.823Z,300.00
2023-04-08T05:05:39.761Z,344.00
2023-04-08T05:06:39.767Z,388.00
2023-04-08T05:07:39.770Z,416.00
2023-04-08T05:08:39.756Z,420.00
2023-04-08T05:09:39.731Z,396.00
2023-04-08T05:10:39.718Z,412.00
2023-04-08T05:11:39.770Z,460.00
2023-04-08T05:12:39.694Z,480.00
2023-04-08T05:13:39.700Z,508.00
2023-04-08T05:14:39.673Z,548.00
2023-04-08T05:15:39.684Z,600.00
2023-04-08T05:16:39.701Z,636.00
2023-04-08T05:17:39.747Z,636.00
2023-04-08T05:18:39.645Z,628.00
2023-04-08T05:19:39.629Z,612.00
2023-04-08T05:20:39.623Z,600.00
2023-04-08T05:21:39.684Z,616.00
2023-04-08T05:22:39.591Z,624.00
2023-04-08T05:23:39.602Z,616.00
2023-04-08T05:24:39.571Z,624.00
2023-04-08T05:25:39.562Z,648.00
2023-04-08T05:26:39.557Z,696.00
2023-04-08T05:27:39.540Z,772.00
2023-04-08T05:28:39.545Z,868.00
2023-04-08T05:29:39.544Z,924.00
2023-04-08T05:30:39.529Z,1000.00
2023-04-08T05:31:39.553Z,1096.00
2023-04-08T05:32:39.820Z,1176.00
2023-04-08T05:33:39.563Z,1292.00
2023-04-08T05:34:39.507Z,1456.00
2023-04-08T05:35:39.529Z,1580.00
2023-04-08T05:36:39.459Z,1612.00
2023-04-08T05:37:39.538Z,1636.00
2023-04-08T05:38:39.435Z,1684.00
2023-04-08T05:39:39.413Z,1788.00
2023-04-08T05:40:39.436Z,1964.00
2023-04-08T05:41:39.396Z,2188.00
2023-04-08T05:42:39.372Z,2408.00
2023-04-08T05:43:39.439Z,2528.00
2023-04-08T05:44:39.427Z,2580.00
2023-04-08T05:45:39.343Z,2572.00
2023-04-08T05:46:39.359Z,2580.00
2023-04-08T05:47:39.453Z,2704.00
2023-04-08T05:48:39.320Z,2960.00
2023-04-08T05:49:39.302Z,3380.00
2023-04-08T05:50:39.288Z,3632.00
2023-04-08T05:51:39.326Z,3660.00
2023-04-08T05:52:39.266Z,3696.00
2023-04-08T05:53:39.316Z,3796.00
2023-04-08T05:54:39.247Z,4136.00
2023-04-08T05:55:39.250Z,4376.00
2023-04-08T05:56:39.225Z,4364.00
2023-04-08T05:57:39.265Z,4240.00
2023-04-08T05:58:39.229Z,4136.00
2023-04-08T05:59:39.192Z,4088.00
2023-04-08T06:00:39.171Z,4184.00
2023-04-08T06:01:39.234Z,4300.00
2023-04-08T06:02:39.392Z,4376.00
2023-04-08T06:03:39.274Z,4700.00
2023-04-08T06:04:39.216Z,5196.00
2023-04-08T06:05:39.127Z,5660.00
2023-04-08T06:06:39.225Z,5604.00
2023-04-08T06:07:39.129Z,5796.00
2023-04-08T06:08:39.088Z,5844.00
2023-04-08T06:09:39.076Z,5804.00
2023-04-08T06:10:39.067Z,5208.00
2023-04-08T06:11:39.054Z,4740.00
2023-04-08T06:12:39.072Z,4852.00
2023-04-08T06:13:39.049Z,4916.00
2023-04-08T06:14:39.023Z,4400.00
2023-04-08T06:15:39.011Z,3908.00
2023-04-08T06:16:39.081Z,3640.00
2023-04-08T06:17:39.064Z,3248.00
2023-04-08T06:18:39.058Z,2884.00
2023-04-08T06:19:38.977Z,2612.00
2023-04-08T06:20:39.020Z,2476.00
2023-04-08T06:21:38.971Z,2348.00
2023-04-08T06:22:38.942Z,2240.00
2023-04-08T06:23:38.945Z,2308.00
2023-04-08T06:24:38.907Z,2400.00
2023-04-08T06:25:38.916Z,2260.00
2023-04-08T06:26:39.074Z,2128.00
2023-04-08T06:27:38.904Z,2092.00
2023-04-08T06:28:38.874Z,1964.00
2023-04-08T06:29:40.543Z,1916.00
2023-04-08T06:30:38.925Z,1920.00
2023-04-08T06:31:38.965Z,1892.00
2023-04-08T06:32:38.913Z,1920.00
2023-04-08T06:33:38.821Z,1956.00
2023-04-08T06:34:38.829Z,2016.00
2023-04-08T06:35:38.852Z,2044.00
2023-04-08T06:36:38.808Z,1968.00
2023-04-08T06:37:38.875Z,1888.00
2023-04-08T06:38:38.776Z,1860.00
2023-04-08T06:39:38.771Z,1864.00
2023-04-08T06:40:38.772Z,1916.00
2023-04-08T06:41:38.751Z,1972.00
2023-04-08T06:42:38.818Z,2108.00
2023-04-08T06:43:38.823Z,2216.00
2023-04-08T06:44:38.704Z,2376.00
2023-04-08T06:45:38.703Z,2652.00
2023-04-08T06:46:38.691Z,3204.00
2023-04-08T06:47:38.818Z,3568.00
2023-04-08T06:48:38.664Z,3592.00
2023-04-08T06:49:38.641Z,3508.00
2023-04-08T06:50:38.641Z,3516.00
2023-04-08T06:51:38.624Z,3728.00
2023-04-08T06:52:38.679Z,3880.00
2023-04-08T06:53:38.632Z,3932.00
2023-04-08T06:54:38.599Z,3944.00
2023-04-08T06:55:38.586Z,3804.00
2023-04-08T06:56:38.572Z,3696.00
2023-04-08T06:57:38.608Z,3712.00
2023-04-08T06:58:38.696Z,3868.00
2023-04-08T06:59:38.534Z,4096.00
2023-04-08T07:00:38.529Z,4236.00
2023-04-08T07:01:38.606Z,4256.00
2023-04-08T07:02:38.666Z,4276.00
2023-04-08T07:03:38.573Z,4352.00
2023-04-08T07:04:38.504Z,4376.00
2023-04-08T07:05:38.476Z,4380.00
2023-04-08T07:06:38.477Z,4552.00
2023-04-08T07:07:38.506Z,4980.00
2023-04-08T07:08:38.520Z,5480.00
2023-04-08T07:09:38.462Z,5968.00
2023-04-08T07:10:38.446Z,6636.00
2023-04-08T07:11:38.443Z,7384.00
2023-04-08T07:12:38.418Z,7692.00
2023-04-08T07:13:38.396Z,7656.00
2023-04-08T07:14:38.383Z,7792.00
2023-04-08T07:15:38.408Z,8032.00
2023-04-08T07:16:38.480Z,8424.00
2023-04-08T07:17:38.388Z,8836.00
2023-04-08T07:18:38.375Z,9136.00
2023-04-08T07:19:38.333Z,9592.00
2023-04-08T07:20:38.394Z,9572.00
2023-04-08T07:21:38.342Z,8836.00
2023-04-08T07:22:38.311Z,7892.00
2023-04-08T07:23:38.294Z,7864.00
2023-04-08T07:24:38.275Z,8544.00
2023-04-08T07:25:38.264Z,8880.00
2023-04-08T07:26:38.275Z,8436.00
2023-04-08T07:27:38.272Z,7624.00
2023-04-08T07:28:38.253Z,6636.00
2023-04-08T07:29:38.235Z,6104.00
2023-04-08T07:30:38.252Z,6256.00
2023-04-08T07:31:38.263Z,6552.00
2023-04-08T07:32:38.274Z,6640.00
2023-04-08T07:33:38.230Z,6668.00
2023-04-08T07:34:38.186Z,6456.00
2023-04-08T07:35:38.200Z,6356.00
2023-04-08T07:36:38.151Z,6488.00
2023-04-08T07:37:38.195Z,7308.00
2023-04-08T07:38:38.132Z,8580.00
2023-04-08T07:39:38.184Z,9404.00
2023-04-08T07:40:38.126Z,9588.00
2023-04-08T07:41:38.114Z,9648.00
2023-04-08T07:42:39.673Z,9804.00
2023-04-08T07:43:38.102Z,9820.00
2023-04-08T07:44:38.081Z,9748.00
2023-04-08T07:45:38.053Z,9960.00
2023-04-08T07:46:38.130Z,11000.00
2023-04-08T07:47:38.150Z,12096.00
2023-04-08T07:48:38.027Z,12736.00
2023-04-08T07:49:38.022Z,13432.00
2023-04-08T07:51:08.991Z,14576.00
2023-04-08T07:51:38.992Z,15372.00
2023-04-08T07:52:38.012Z,15884.00
2023-04-08T07:53:38.011Z,16252.00
2023-04-08T07:54:38.348Z,16928.00
2023-04-08T07:55:37.944Z,17280.00
2023-04-08T07:56:38.003Z,17248.00
2023-04-08T07:57:37.942Z,16864.00
2023-04-08T07:58:37.975Z,16344.00
2023-04-08T07:59:37.909Z,18080.00
2023-04-08T08:00:37.897Z,22784.00
2023-04-08T08:01:37.979Z,20320.00
2023-04-08T08:02:38.006Z,17984.00
2023-04-08T08:03:38.043Z,14944.00
2023-04-08T08:04:38.147Z,14260.00
2023-04-08T08:05:37.868Z,13696.00
2023-04-08T08:06:37.851Z,12960.00
2023-04-08T08:07:37.827Z,11840.00
2023-04-08T08:08:37.800Z,10684.00
2023-04-08T08:09:37.795Z,10988.00
2023-04-08T08:10:37.780Z,10068.00
2023-04-08T08:11:37.775Z,7248.00
2023-04-08T08:12:37.778Z,5024.00
2023-04-08T08:13:37.783Z,4432.00
2023-04-08T08:14:37.757Z,4544.00
2023-04-08T08:15:37.757Z,4924.00
2023-04-08T08:16:37.725Z,5616.00
2023-04-08T08:17:37.818Z,7044.00
2023-04-08T08:18:37.697Z,8716.00
2023-04-08T08:19:37.719Z,10664.00
2023-04-08T08:20:37.699Z,12640.00
2023-04-08T08:21:37.680Z,13940.00
2023-04-08T08:22:44.308Z,14592.00
2023-04-08T08:23:38.748Z,15328.00
2023-04-08T08:24:37.629Z,16044.00
2023-04-08T08:25:37.617Z,16876.00
2023-04-08T08:26:37.635Z,17760.00
2023-04-08T08:27:37.602Z,18688.00
2023-04-08T08:28:37.591Z,18464.00
2023-04-08T08:29:37.603Z,17696.00
2023-04-08T08:30:37.559Z,17696.00
2023-04-08T08:31:37.652Z,16824.00
2023-04-08T08:32:37.571Z,14828.00
2023-04-08T08:33:37.557Z,13692.00
2023-04-08T08:34:37.529Z,13856.00
2023-04-08T08:35:37.555Z,14280.00
2023-04-08T08:36:37.491Z,14736.00
2023-04-08T08:37:37.503Z,15316.00
2023-04-08T08:38:37.474Z,16700.00
2023-04-08T08:39:37.463Z,18080.00
2023-04-08T08:40:37.456Z,18336.00
2023-04-08T08:41:37.455Z,18176.00
2023-04-08T08:42:37.441Z,18496.00
2023-04-08T08:43:37.431Z,19104.00
2023-04-08T08:44:37.411Z,19232.00
2023-04-08T08:45:37.392Z,18784.00
2023-04-08T08:46:37.424Z,18144.00
2023-04-08T08:47:37.447Z,17824.00
2023-04-08T08:48:37.368Z,17088.00
2023-04-08T08:49:37.364Z,16896.00
2023-04-08T08:50:37.352Z,17408.00
2023-04-08T08:51:37.332Z,18048.00
2023-04-08T08:52:37.617Z,18624.00
2023-04-08T08:53:37.310Z,18656.00
2023-04-08T08:54:37.297Z,18560.00
2023-04-08T08:56:37.304Z,16576.00
2023-04-08T08:57:37.292Z,14824.00
2023-04-08T08:58:37.257Z,14012.00
2023-04-08T08:59:37.272Z,14224.00
2023-04-08T09:00:37.233Z,14888.00
2023-04-08T09:01:37.354Z,15260.00
2023-04-08T09:02:37.400Z,15200.00
2023-04-08T09:03:37.431Z,15652.00
2023-04-08T09:04:37.258Z,15692.00
2023-04-08T09:05:37.477Z,15432.00
2023-04-08T09:06:37.171Z,15972.00
2023-04-08T09:07:37.173Z,16252.00
2023-04-08T09:08:37.166Z,15784.00
2023-04-08T09:09:37.184Z,15732.00
2023-04-08T09:10:37.127Z,15916.00
2023-04-08T09:11:37.119Z,16588.00
2023-04-08T09:12:37.142Z,16992.00
2023-04-08T09:13:37.123Z,18016.00
2023-04-08T09:14:37.078Z,19040.00
2023-04-08T09:15:37.070Z,19104.00
2023-04-08T09:16:37.113Z,18560.00
2023-04-08T09:17:37.101Z,18784.00
2023-04-08T09:18:37.039Z,20416.00
2023-04-08T09:19:37.032Z,22528.00
2023-04-08T09:20:37.017Z,23712.00
2023-04-08T09:21:37.077Z,23712.00
2023-04-08T09:22:37.047Z,23232.00
2023-04-08T09:23:37.020Z,23808.00
2023-04-08T09:24:36.984Z,25184.00
2023-04-08T09:25:36.968Z,24800.00
2023-04-08T09:26:36.954Z,24544.00
2023-04-08T09:27:36.965Z,23968.00
2023-04-08T09:28:36.944Z,24800.00
2023-04-08T09:29:39.665Z,25152.00
2023-04-08T09:30:36.904Z,23552.00
2023-04-08T09:31:36.997Z,21376.00
2023-04-08T09:32:36.911Z,20096.00
2023-04-08T09:33:36.877Z,19168.00
2023-04-08T09:34:37.002Z,18272.00
2023-04-08T09:35:36.891Z,18496.00
2023-04-08T09:36:36.842Z,18624.00
2023-04-08T09:37:36.854Z,18720.00
2023-04-08T09:38:36.820Z,17728.00
2023-04-08T09:39:36.847Z,16756.00
2023-04-08T09:40:36.839Z,16100.00
2023-04-08T09:41:36.798Z,16348.00
2023-04-08T09:42:36.802Z,17216.00
2023-04-08T09:43:36.779Z,17952.00
2023-04-08T09:44:36.853Z,18816.00
2023-04-08T09:45:36.845Z,19744.00
2023-04-08T09:46:36.747Z,20672.00
2023-04-08T09:47:36.805Z,21248.00
2023-04-08T09:48:36.712Z,21344.00
2023-04-08T09:49:36.753Z,21472.00
2023-04-08T09:50:36.695Z,21856.00
2023-04-08T09:51:36.686Z,22368.00
2023-04-08T09:52:36.720Z,23040.00
2023-04-08T09:53:36.697Z,24096.00
2023-04-08T09:54:36.657Z,25472.00
2023-04-08T09:55:36.708Z,26816.00
2023-04-08T09:56:36.628Z,28192.00
2023-04-08T09:57:36.641Z,29632.00
2023-04-08T09:58:36.609Z,31360.00
2023-04-08T09:59:36.758Z,33600.00
2023-04-08T10:00:36.631Z,36640.00
2023-04-08T10:01:36.837Z,39168.00
2023-04-08T10:02:36.687Z,40160.00
2023-04-08T10:03:36.703Z,41152.00
2023-04-08T10:04:36.652Z,48704.00
2023-04-08T10:05:36.534Z,43488.00
2023-04-08T10:06:36.553Z,38496.00
2023-04-08T10:07:36.570Z,34304.00
2023-04-08T10:08:36.509Z,33984.00
2023-04-08T10:09:36.493Z,32192.00
2023-04-08T10:10:36.507Z,30336.00
2023-04-08T10:11:36.487Z,28000.00
2023-04-08T10:12:36.486Z,25888.00
2023-04-08T10:13:36.502Z,24896.00
2023-04-08T10:14:36.462Z,24576.00
2023-04-08T10:15:36.428Z,25408.00
2023-04-08T10:16:36.423Z,27264.00
2023-04-08T10:17:36.481Z,27264.00
2023-04-08T10:18:36.386Z,26656.00
2023-04-08T10:19:36.413Z,25984.00
2023-04-08T10:20:36.483Z,25376.00
2023-04-08T10:21:36.384Z,24096.00
2023-04-08T10:22:36.368Z,24448.00
2023-04-08T10:23:36.337Z,26368.00
2023-04-08T10:24:36.311Z,28448.00
2023-04-08T10:25:36.310Z,30944.00
2023-04-08T10:26:36.360Z,32832.00
2023-04-08T10:27:36.319Z,34528.00
2023-04-08T10:28:36.283Z,34816.00
2023-04-08T10:29:36.282Z,35104.00
2023-04-08T10:30:36.249Z,34240.00
2023-04-08T10:31:36.312Z,33984.00
2023-04-08T10:32:36.294Z,31008.00
2023-04-08T10:33:39.220Z,28800.00
2023-04-08T10:34:36.203Z,26944.00
2023-04-08T10:35:36.228Z,25568.00
2023-04-08T10:36:36.184Z,24736.00
2023-04-08T10:37:36.180Z,24384.00
2023-04-08T10:38:36.174Z,24416.00
2023-04-08T10:39:38.272Z,24128.00
2023-04-08T10:40:36.129Z,23232.00
2023-04-08T10:41:36.199Z,21728.00
2023-04-08T10:42:36.102Z,20416.00
2023-04-08T10:43:36.112Z,19552.00
2023-04-08T10:44:36.088Z,19136.00
2023-04-08T10:45:36.146Z,19008.00
2023-04-08T10:46:36.205Z,18944.00
2023-04-08T10:47:36.207Z,19040.00
2023-04-08T10:48:36.096Z,19360.00
2023-04-08T10:49:36.174Z,19776.00
2023-04-08T10:50:36.070Z,19968.00
2023-04-08T10:51:36.017Z,20096.00
2023-04-08T10:52:36.013Z,20032.00
2023-04-08T10:53:36.090Z,20192.00
2023-04-08T10:54:35.982Z,20480.00
2023-04-08T10:55:35.982Z,20448.00
2023-04-08T10:56:35.980Z,20224.00
2023-04-08T10:57:35.954Z,20064.00
2023-04-08T10:58:35.939Z,19872.00
2023-04-08T10:59:35.930Z,19872.00
2023-04-08T11:00:35.914Z,20256.00
2023-04-08T11:01:35.959Z,21792.00
2023-04-08T11:02:36.031Z,23840.00
2023-04-08T11:03:36.352Z,25088.00
2023-04-08T11:04:36.029Z,25504.00
2023-04-08T11:05:35.882Z,25184.00
2023-04-08T11:06:35.874Z,25440.00
2023-04-08T11:07:35.873Z,26848.00
2023-04-08T11:08:35.942Z,29472.00
2023-04-08T11:09:35.902Z,32096.00
2023-04-08T11:10:35.810Z,33888.00
2023-04-08T11:11:35.853Z,32992.00
2023-04-08T11:12:35.806Z,30240.00
2023-04-08T11:13:35.787Z,27552.00
2023-04-08T11:14:35.811Z,26304.00
2023-04-08T11:15:35.836Z,26848.00
2023-04-08T11:16:35.879Z,28608.00
2023-04-08T11:17:35.796Z,30240.00
2023-04-08T11:18:35.793Z,31136.00
2023-04-08T11:19:36.115Z,30848.00
2023-04-08T11:20:35.751Z,30656.00
2023-04-08T11:21:35.700Z,31296.00
2023-04-08T11:22:35.690Z,32160.00
2023-04-08T11:23:35.671Z,33504.00
2023-04-08T11:24:35.659Z,33376.00
2023-04-08T11:25:35.650Z,32448.00
2023-04-08T11:26:35.649Z,30976.00
2023-04-08T11:27:35.637Z,29632.00
2023-04-08T11:28:35.619Z,30048.00
2023-04-08T11:29:35.614Z,33312.00
2023-04-08T11:30:35.595Z,38336.00
2023-04-08T11:31:35.666Z,39776.00
2023-04-08T11:32:35.596Z,38528.00
2023-04-08T11:33:35.578Z,42016.00
2023-04-08T11:34:35.552Z,44928.00
2023-04-08T11:35:35.589Z,46016.00
2023-04-08T11:36:35.586Z,42912.00
2023-04-08T11:37:35.641Z,42208.00
2023-04-08T11:38:35.519Z,43616.00
2023-04-08T11:39:35.507Z,44672.00
2023-04-08T11:40:35.482Z,43488.00
2023-04-08T11:41:35.513Z,38432.00
2023-04-08T11:42:35.463Z,34784.00
2023-04-08T11:43:35.519Z,32512.00
2023-04-08T11:44:35.708Z,30848.00
2023-04-08T11:45:36.363Z,28928.00
2023-04-08T11:46:35.657Z,26592.00
2023-04-08T11:47:35.484Z,24320.00
2023-04-08T11:48:35.397Z,22304.00
2023-04-08T11:49:35.481Z,20640.00
2023-04-08T11:50:35.438Z,19296.00
2023-04-08T11:51:35.422Z,18272.00
2023-04-08T11:52:35.419Z,17088.00
2023-04-08T11:53:35.347Z,15860.00
2023-04-08T11:54:35.325Z,14852.00
2023-04-08T11:55:35.338Z,13980.00
2023-04-08T11:56:35.318Z,13340.00
2023-04-08T11:57:35.310Z,13064.00
2023-04-08T11:58:35.324Z,12904.00
2023-04-08T11:59:35.280Z,12636.00
2023-04-08T12:00:35.285Z,12356.00
2023-04-08T12:01:35.322Z,12060.00
2023-04-08T12:02:35.466Z,11756.00
2023-04-08T12:03:35.391Z,11436.00
2023-04-08T12:04:35.297Z,11212.00
2023-04-08T12:05:35.348Z,11032.00
2023-04-08T12:06:35.364Z,10792.00
2023-04-08T12:07:35.231Z,10556.00
2023-04-08T12:08:35.197Z,10344.00
2023-04-08T12:09:35.234Z,10112.00
2023-04-08T12:10:35.211Z,9880.00
2023-04-08T12:11:35.160Z,9688.00
2023-04-08T12:12:35.159Z,9540.00
2023-04-08T12:13:35.157Z,9428.00
2023-04-08T12:14:35.150Z,9328.00
2023-04-08T12:15:35.159Z,9236.00
2023-04-08T12:16:35.365Z,9168.00
2023-04-08T12:17:35.578Z,9168.00
2023-04-08T12:18:35.141Z,9216.00
2023-04-08T12:19:37.145Z,9280.00
2023-04-08T12:20:35.155Z,9384.00
2023-04-08T12:21:35.095Z,9516.00
2023-04-08T12:22:35.055Z,9676.00
2023-04-08T12:23:35.029Z,9804.00
2023-04-08T12:24:35.008Z,9924.00
2023-04-08T12:25:35.004Z,10040.00
2023-04-08T12:26:35.161Z,10224.00